Time;durP1;ratioP1;P1;durP2;ratioP2;P2;SDS_P1;SDS_P2;PMS_P1;PMS_P2;Temp;Humidity;BMP_temperature;BMP_pressure;BME280_temperature;BME280_humidity;BME280_pressure;Samples;Min_cycle;Max_cycle;Signal;HPM_P1;HPM_P2
2023/09/16 00:01:59;;;;;;;;;;;16.00;99.90;;;;;;12375927;28;19941;-85
2023/09/16 00:08:00;;;;;;;;;;;16.00;99.90;;;;;;12391153;28;19930;-84
2023/09/16 00:14:02;;;;;;;;;;;15.80;99.90;;;;;;12365930;28;19933;-84
2023/09/16 00:20:09;;;;;;;;;;;15.80;99.90;;;;;;12385851;28;19993;-85
2023/09/16 00:26:13;;;;;;;;;;;15.80;99.90;;;;;;12369899;28;20122;-85
2023/09/16 00:32:15;;;;;;;;;;;15.80;99.90;;;;;;12346700;28;19934;-85
2023/09/16 00:38:17;;;;;;;;;;;15.70;99.90;;;;;;12375851;28;19977;-87
2023/09/16 00:44:19;;;;;;;;;;;15.70;99.90;;;;;;12360696;28;19930;-86
2023/09/16 00:50:21;;;;;;;;;;;15.60;99.90;;;;;;12382830;28;19933;-87
2023/09/16 00:56:23;;;;;;;;;;;15.60;99.90;;;;;;12368278;28;19934;-85
2023/09/16 01:02:26;;;;;;;;;;;15.50;99.90;;;;;;12377009;28;20056;-84
2023/09/16 01:08:28;;;;;;;;;;;15.40;99.90;;;;;;12350136;28;19930;-86
2023/09/16 01:14:30;;;;;;;;;;;15.50;99.90;;;;;;12379364;28;20129;-84
2023/09/16 01:20:32;;;;;;;;;;;15.50;99.90;;;;;;12355836;28;19969;-83
2023/09/16 01:26:34;;;;;;;;;;;15.50;99.90;;;;;;12376693;28;20052;-84
2023/09/16 01:32:42;;;;;;;;;;;15.50;99.90;;;;;;12356206;28;20012;-83
2023/09/16 01:38:48;;;;;;;;;;;15.40;99.90;;;;;;12357605;28;19937;-83
2023/09/16 01:44:53;;;;;;;;;;;15.60;99.90;;;;;;12369453;28;19929;-83
2023/09/16 01:50:55;;;;;;;;;;;15.60;99.90;;;;;;12379174;28;19932;-83
2023/09/16 01:56:57;;;;;;;;;;;15.60;99.90;;;;;;12355607;28;20298;-84
2023/09/16 02:02:59;;;;;;;;;;;15.70;99.90;;;;;;12355347;28;19933;-83
2023/09/16 02:09:00;;;;;;;;;;;15.60;99.90;;;;;;12377733;28;19983;-83
2023/09/16 02:15:04;;;;;;;;;;;15.50;99.90;;;;;;12364482;28;20016;-83
2023/09/16 02:21:07;;;;;;;;;;;15.40;99.90;;;;;;12365149;28;20433;-84
2023/09/16 02:27:09;;;;;;;;;;;15.10;99.90;;;;;;12359515;28;19975;-84
2023/09/16 02:33:11;;;;;;;;;;;15.40;99.90;;;;;;12365071;28;19973;-84
2023/09/16 02:39:13;;;;;;;;;;;15.50;99.90;;;;;;12369947;28;19934;-84
2023/09/16 02:45:14;;;;;;;;;;;15.40;99.90;;;;;;12381388;28;19936;-87
2023/09/16 02:51:16;;;;;;;;;;;15.60;99.90;;;;;;12376329;28;20358;-83
2023/09/16 02:57:18;;;;;;;;;;;15.70;99.90;;;;;;12361340;28;19984;-83
2023/09/16 03:03:20;;;;;;;;;;;15.70;99.90;;;;;;12359978;28;20381;-83
2023/09/16 03:09:22;;;;;;;;;;;15.70;99.90;;;;;;12366153;28;20119;-84
2023/09/16 03:15:24;;;;;;;;;;;15.60;99.90;;;;;;12363165;28;19933;-83
2023/09/16 03:21:26;;;;;;;;;;;15.60;99.90;;;;;;12362214;28;20398;-84
2023/09/16 03:27:27;;;;;;;;;;;15.40;99.90;;;;;;12364438;28;19930;-83
2023/09/16 03:33:29;;;;;;;;;;;15.60;99.90;;;;;;12369545;28;19929;-83
2023/09/16 03:39:31;;;;;;;;;;;15.70;99.90;;;;;;12374642;28;20013;-83
2023/09/16 03:45:33;;;;;;;;;;;15.80;99.90;;;;;;12358178;28;19929;-84
2023/09/16 03:51:36;;;;;;;;;;;15.80;99.90;;;;;;12350719;28;19930;-82
2023/09/16 03:57:38;;;;;;;;;;;15.80;99.90;;;;;;12360717;28;19969;-83
2023/09/16 04:03:40;;;;;;;;;;;15.90;99.90;;;;;;12357246;28;19968;-83
2023/09/16 04:09:42;;;;;;;;;;;15.90;99.90;;;;;;12366106;28;19929;-84
2023/09/16 04:15:44;;;;;;;;;;;15.80;99.90;;;;;;12354784;28;19936;-83
2023/09/16 04:21:49;;;;;;;;;;;15.70;99.90;;;;;;12377199;28;19988;-83
2023/09/16 04:27:51;;;;;;;;;;;15.80;99.90;;;;;;12364881;28;19965;-83
2023/09/16 04:33:54;;;;;;;;;;;15.80;99.90;;;;;;12362614;28;19934;-82
2023/09/16 04:39:56;;;;;;;;;;;15.60;99.90;;;;;;12359692;28;19929;-83
2023/09/16 04:45:57;;;;;;;;;;;15.70;99.90;;;;;;12357993;28;20390;-83
2023/09/16 04:51:59;;;;;;;;;;;15.80;99.90;;;;;;12355336;28;19936;-83
2023/09/16 04:58:01;;;;;;;;;;;15.70;99.90;;;;;;12371318;28;19933;-82
2023/09/16 05:04:03;;;;;;;;;;;15.60;99.90;;;;;;12378930;28;20440;-83
2023/09/16 05:10:05;;;;;;;;;;;15.80;99.90;;;;;;12376420;28;20416;-83
2023/09/16 05:16:10;;;;;;;;;;;15.70;99.90;;;;;;12371771;28;19960;-82
2023/09/16 05:22:12;;;;;;;;;;;15.80;99.90;;;;;;12372540;28;19977;-83
2023/09/16 05:28:14;;;;;;;;;;;15.70;99.90;;;;;;12365100;28;19952;-83
2023/09/16 05:34:16;;;;;;;;;;;15.60;99.90;;;;;;12356205;28;19936;-83
2023/09/16 05:40:18;;;;;;;;;;;15.70;99.90;;;;;;12363574;28;19929;-82
2023/09/16 05:46:19;;;;;;;;;;;15.70;99.90;;;;;;12369815;28;20017;-83
2023/09/16 05:52:21;;;;;;;;;;;15.90;99.90;;;;;;12356852;28;19937;-84
2023/09/16 05:58:23;;;;;;;;;;;15.90;99.90;;;;;;12364405;28;19937;-84
2023/09/16 06:04:25;;;;;;;;;;;15.90;99.90;;;;;;12382695;28;19930;-84
2023/09/16 06:10:27;;;;;;;;;;;15.90;99.90;;;;;;12362598;28;19934;-83
2023/09/16 06:16:29;;;;;;;;;;;16.00;99.90;;;;;;12353138;28;19925;-84
2023/09/16 06:22:30;;;;;;;;;;;16.10;99.90;;;;;;12362084;28;20025;-84
2023/09/16 06:28:33;;;;;;;;;;;16.20;99.90;;;;;;12376723;28;19941;-84
2023/09/16 06:34:35;;;;;;;;;;;16.20;99.90;;;;;;12369918;28;19936;-82
2023/09/16 06:40:37;;;;;;;;;;;16.20;99.90;;;;;;12382155;28;20423;-84
2023/09/16 06:46:40;;;;;;;;;;;16.30;99.90;;;;;;12373933;28;19984;-84
2023/09/16 06:52:42;;;;;;;;;;;16.30;99.90;;;;;;12361708;28;19945;-84
2023/09/16 06:58:44;;;;;;;;;;;16.40;99.90;;;;;;12373165;28;20020;-83
2023/09/16 07:04:46;;;;;;;;;;;16.50;99.90;;;;;;12381548;28;19929;-84
2023/09/16 07:10:48;;;;;;;;;;;16.60;99.90;;;;;;12361279;28;19976;-84
2023/09/16 07:16:50;;;;;;;;;;;16.80;99.90;;;;;;12356994;28;20024;-84
2023/09/16 07:22:52;;;;;;;;;;;17.00;99.90;;;;;;12354852;28;20381;-84
2023/09/16 07:28:54;;;;;;;;;;;17.20;99.90;;;;;;12372443;28;19983;-83
2023/09/16 07:34:56;;;;;;;;;;;17.30;99.90;;;;;;12360946;28;20259;-82
2023/09/16 07:40:58;;;;;;;;;;;17.60;99.90;;;;;;12370202;28;19969;-82
2023/09/16 07:47:00;;;;;;;;;;;17.70;99.90;;;;;;12347279;28;19980;-83
2023/09/16 07:53:01;;;;;;;;;;;18.10;99.90;;;;;;12366384;28;19930;-82
2023/09/16 07:59:04;;;;;;;;;;;18.30;99.90;;;;;;12353818;28;19929;-82
2023/09/16 08:05:06;;;;;;;;;;;18.40;99.90;;;;;;12347934;28;19938;-83
2023/09/16 08:11:08;;;;;;;;;;;18.50;99.90;;;;;;12365372;28;19929;-82
2023/09/16 08:17:10;;;;;;;;;;;18.60;99.90;;;;;;12364668;28;20020;-83
2023/09/16 08:23:13;;;;;;;;;;;18.90;99.90;;;;;;12355800;28;19943;-82
2023/09/16 08:29:15;;;;;;;;;;;19.10;99.90;;;;;;12366796;28;19936;-82
2023/09/16 08:35:17;;;;;;;;;;;19.20;99.90;;;;;;12371595;28;20473;-82
2023/09/16 08:41:27;;;;;;;;;;;19.40;99.90;;;;;;12376770;28;20361;-82
2023/09/16 08:47:33;;;;;;;;;;;19.60;99.90;;;;;;12377571;28;19958;-82
2023/09/16 08:53:36;;;;;;;;;;;19.90;99.90;;;;;;12378769;28;19983;-83
2023/09/16 08:59:38;;;;;;;;;;;20.30;99.90;;;;;;12384438;28;20012;-83
2023/09/16 09:05:42;;;;;;;;;;;20.70;99.90;;;;;;12364967;28;20457;-83
2023/09/16 09:11:44;;;;;;;;;;;21.00;99.90;;;;;;12360085;28;19937;-81
2023/09/16 09:17:54;;;;;;;;;;;21.30;99.90;;;;;;12380773;28;20056;-85
2023/09/16 09:23:58;;;;;;;;;;;21.90;16.00;;;;;;12365486;28;20382;-87
2023/09/16 09:29:59;;;;;;;;;;;22.30;1.00;;;;;;12368338;28;20008;-87
2023/09/16 09:36:11;;;;;;;;;;;22.70;1.00;;;;;;12373210;28;20452;-84
2023/09/16 09:42:19;;;;;;;;;;;22.90;1.00;;;;;;12383074;28;19925;-87
2023/09/16 09:48:20;;;;;;;;;;;23.10;1.00;;;;;;12364374;28;20024;-85
2023/09/16 09:54:22;;;;;;;;;;;23.50;1.00;;;;;;12360761;28;19933;-87
2023/09/16 10:00:24;;;;;;;;;;;23.80;1.00;;;;;;12357794;28;20452;-83
2023/09/16 10:06:26;;;;;;;;;;;23.70;1.00;;;;;;12352796;28;19929;-84
2023/09/16 10:12:28;;;;;;;;;;;23.70;1.00;;;;;;12340566;28;20367;-85
2023/09/16 10:18:30;;;;;;;;;;;23.80;99.90;;;;;;12368664;28;19968;-84
2023/09/16 10:24:32;;;;;;;;;;;24.00;1.00;;;;;;12340704;28;20044;-85
2023/09/16 10:30:34;;;;;;;;;;;24.10;1.00;;;;;;12349550;28;20192;-83
2023/09/16 10:36:36;;;;;;;;;;;24.40;1.00;;;;;;12374148;28;19929;-84
2023/09/16 10:42:39;;;;;;;;;;;24.30;99.90;;;;;;12351648;28;19984;-83
2023/09/16 10:48:42;;;;;;;;;;;24.20;99.90;;;;;;12361497;28;19929;-83
2023/09/16 10:55:07;;;;;;;;;;;24.30;99.90;;;;;;12368304;28;20028;-82
2023/09/16 11:01:13;;;;;;;;;;;24.50;1.00;;;;;;12366361;28;19968;-86
2023/09/16 11:07:16;;;;;;;;;;;24.70;99.90;;;;;;12351818;28;19930;-84
2023/09/16 11:13:18;;;;;;;;;;;25.00;99.90;;;;;;12376528;28;19925;-83
2023/09/16 11:19:21;;;;;;;;;;;25.00;99.90;;;;;;12358463;28;19926;-83
2023/09/16 11:25:23;;;;;;;;;;;25.10;90.60;;;;;;12361049;28;19929;-83
2023/09/16 11:31:26;;;;;;;;;;;25.30;99.90;;;;;;12351429;28;20012;-85
2023/09/16 11:37:30;;;;;;;;;;;25.20;1.00;;;;;;12371075;28;20008;-84
2023/09/16 11:43:32;;;;;;;;;;;25.20;1.00;;;;;;12379659;28;19926;-84
2023/09/16 11:49:34;;;;;;;;;;;25.20;1.00;;;;;;12358847;28;19938;-86
2023/09/16 11:55:36;;;;;;;;;;;25.40;1.00;;;;;;12360896;28;20866;-83
2023/09/16 12:01:40;;;;;;;;;;;25.40;1.00;;;;;;12360678;28;20029;-84
2023/09/16 12:07:42;;;;;;;;;;;25.40;1.00;;;;;;12348772;28;19936;-84
2023/09/16 12:13:44;;;;;;;;;;;25.60;1.00;;;;;;12357478;28;19984;-84
2023/09/16 12:19:50;;;;;;;;;;;25.70;99.90;;;;;;12358643;28;20031;-83
2023/09/16 12:25:51;;;;;;;;;;;25.60;99.90;;;;;;12368598;28;19972;-84
2023/09/16 12:32:06;;;;;;;;;;;25.70;1.00;;;;;;12364487;28;19933;-84
2023/09/16 12:38:08;;;;;;;;;;;25.90;1.00;;;;;;12365367;28;20032;-85
2023/09/16 12:44:10;;;;;;;;;;;25.90;99.90;;;;;;12359154;28;19940;-87
2023/09/16 12:50:12;;;;;;;;;;;25.80;99.90;;;;;;12367557;28;19952;-84
2023/09/16 12:56:17;;;;;;;;;;;25.70;99.90;;;;;;12356481;28;20472;-86
2023/09/16 13:02:20;;;;;;;;;;;26.00;99.90;;;;;;12371398;28;19937;-87
2023/09/16 13:08:24;;;;;;;;;;;26.10;93.80;;;;;;12360025;28;21088;-86
2023/09/16 13:14:26;;;;;;;;;;;26.10;1.00;;;;;;12353715;28;19936;-83
2023/09/16 13:20:35;;;;;;;;;;;26.20;99.90;;;;;;12377656;28;20494;-85
2023/09/16 13:26:47;;;;;;;;;;;25.70;1.00;;;;;;12362218;28;19934;-84
2023/09/16 13:32:51;;;;;;;;;;;25.40;99.90;;;;;;12362094;28;19933;-83
2023/09/16 13:38:53;;;;;;;;;;;25.60;99.90;;;;;;12373420;28;20311;-84
2023/09/16 13:44:55;;;;;;;;;;;25.50;78.50;;;;;;12425428;28;19934;-84
2023/09/16 13:50:57;;;;;;;;;;;25.70;99.90;;;;;;12403619;28;19937;-83
2023/09/16 13:56:59;;;;;;;;;;;25.60;99.90;;;;;;12389764;28;20394;-84
2023/09/16 14:03:00;;;;;;;;;;;25.50;1.00;;;;;;12409454;28;19937;-86
2023/09/16 14:09:02;;;;;;;;;;;25.50;1.00;;;;;;12391988;28;19930;-87
2023/09/16 14:15:04;;;;;;;;;;;25.30;1.00;;;;;;12371915;28;19991;-86
2023/09/16 14:21:06;;;;;;;;;;;25.20;99.90;;;;;;12385555;28;19973;-86
2023/09/16 14:27:08;;;;;;;;;;;25.00;99.90;;;;;;12371658;28;19930;-85
2023/09/16 14:33:10;;;;;;;;;;;24.70;1.00;;;;;;12363055;28;19941;-85
2023/09/16 14:39:12;;;;;;;;;;;24.70;1.00;;;;;;12382849;28;19929;-86
2023/09/16 14:45:14;;;;;;;;;;;24.70;55.80;;;;;;12362126;28;20373;-87
2023/09/16 14:51:15;;;;;;;;;;;24.70;99.90;;;;;;12379369;28;20032;-86
2023/09/16 14:57:17;;;;;;;;;;;24.80;99.90;;;;;;12348682;28;20359;-84
2023/09/16 15:03:19;;;;;;;;;;;24.90;99.90;;;;;;12366029;28;20949;-84
2023/09/16 15:09:21;;;;;;;;;;;25.00;99.90;;;;;;12371655;28;20040;-84
2023/09/16 15:15:23;;;;;;;;;;;24.90;99.90;;;;;;12358629;28;20313;-81
2023/09/16 15:21:24;;;;;;;;;;;24.80;99.90;;;;;;12354820;28;19930;-84
2023/09/16 15:27:26;;;;;;;;;;;24.60;99.90;;;;;;12356163;28;19930;-83
2023/09/16 15:33:28;;;;;;;;;;;24.50;1.00;;;;;;12371561;28;20028;-85
2023/09/16 15:39:30;;;;;;;;;;;24.60;1.00;;;;;;12362484;28;19934;-83
2023/09/16 15:45:36;;;;;;;;;;;24.70;1.00;;;;;;12352756;28;19975;-83
2023/09/16 15:51:38;;;;;;;;;;;24.60;1.00;;;;;;12375300;28;20379;-83
2023/09/16 15:57:39;;;;;;;;;;;24.50;1.00;;;;;;12359885;28;19930;-83
2023/09/16 16:03:41;;;;;;;;;;;24.30;1.00;;;;;;12363416;28;19929;-83
2023/09/16 16:09:50;;;;;;;;;;;24.10;1.00;;;;;;12357238;28;19926;-83
2023/09/16 16:15:52;;;;;;;;;;;23.70;1.00;;;;;;12354742;28;19984;-83
2023/09/16 16:21:54;;;;;;;;;;;23.40;1.00;;;;;;12373361;28;19934;-84
2023/09/16 16:27:56;;;;;;;;;;;23.20;1.00;;;;;;12348461;28;20016;-84
2023/09/16 16:33:57;;;;;;;;;;;23.10;1.00;;;;;;12359609;28;19929;-83
2023/09/16 16:39:59;;;;;;;;;;;23.30;14.00;;;;;;12369133;28;20044;-83
2023/09/16 16:46:04;;;;;;;;;;;23.20;1.00;;;;;;12373665;28;19930;-83
2023/09/16 16:52:06;;;;;;;;;;;23.10;13.30;;;;;;12370032;28;20575;-83
2023/09/16 16:58:07;;;;;;;;;;;22.90;1.60;;;;;;12383118;28;19945;-83
2023/09/16 17:04:09;;;;;;;;;;;22.80;8.20;;;;;;12368191;28;19934;-82
2023/09/16 17:10:11;;;;;;;;;;;22.80;46.30;;;;;;12367413;28;19930;-83
2023/09/16 17:16:14;;;;;;;;;;;22.50;62.80;;;;;;12371586;28;19961;-83
2023/09/16 17:22:19;;;;;;;;;;;22.40;92.90;;;;;;12366634;28;19973;-83
2023/09/16 17:28:24;;;;;;;;;;;22.10;63.00;;;;;;12366293;28;19980;-82
2023/09/16 17:34:26;;;;;;;;;;;22.00;99.90;;;;;;12363390;28;19935;-82
2023/09/16 17:40:28;;;;;;;;;;;21.80;84.90;;;;;;12383222;28;19936;-83
2023/09/16 17:46:30;;;;;;;;;;;21.70;97.90;;;;;;12369283;28;19929;-83
2023/09/16 17:52:32;;;;;;;;;;;21.80;99.90;;;;;;12380717;28;19961;-83
2023/09/16 17:58:35;;;;;;;;;;;21.70;99.90;;;;;;12366530;28;19926;-83
2023/09/16 18:04:37;;;;;;;;;;;21.50;99.90;;;;;;12378413;28;20056;-83
2023/09/16 18:10:39;;;;;;;;;;;21.20;99.90;;;;;;12366120;28;20005;-83
2023/09/16 18:16:41;;;;;;;;;;;21.10;99.90;;;;;;12358596;28;20021;-83
2023/09/16 18:22:43;;;;;;;;;;;21.20;99.90;;;;;;12364923;28;19984;-83
2023/09/16 18:28:45;;;;;;;;;;;21.10;99.90;;;;;;12383905;28;19929;-83
2023/09/16 18:34:47;;;;;;;;;;;20.90;99.90;;;;;;12350406;28;19973;-83
2023/09/16 18:40:49;;;;;;;;;;;20.90;99.90;;;;;;12358217;28;20425;-83
2023/09/16 18:46:51;;;;;;;;;;;20.80;99.90;;;;;;12360909;28;19934;-82
2023/09/16 18:52:54;;;;;;;;;;;20.70;99.90;;;;;;12381484;28;19933;-82
2023/09/16 18:58:55;;;;;;;;;;;20.50;99.90;;;;;;12360565;28;19929;-82
2023/09/16 19:04:57;;;;;;;;;;;20.40;99.90;;;;;;12377705;28;19973;-82
2023/09/16 19:10:59;;;;;;;;;;;20.40;99.90;;;;;;12364597;28;20016;-82
2023/09/16 19:17:01;;;;;;;;;;;20.40;99.90;;;;;;12371603;28;21040;-82
2023/09/16 19:23:03;;;;;;;;;;;20.20;99.90;;;;;;12368709;28;19930;-82
2023/09/16 19:29:05;;;;;;;;;;;20.20;99.90;;;;;;12382691;28;20387;-81
2023/09/16 19:35:07;;;;;;;;;;;20.10;99.90;;;;;;12403031;28;20000;-85
2023/09/16 19:41:08;;;;;;;;;;;20.00;99.90;;;;;;12423119;28;19929;-82
2023/09/16 19:47:10;;;;;;;;;;;20.00;99.90;;;;;;12395252;28;19934;-83
2023/09/16 19:53:14;;;;;;;;;;;20.00;99.90;;;;;;12369925;28;20290;-81
2023/09/16 19:59:16;;;;;;;;;;;19.90;99.90;;;;;;12369453;28;19930;-82
2023/09/16 20:05:21;;;;;;;;;;;19.90;99.90;;;;;;12348293;28;19934;-82
2023/09/16 20:11:23;;;;;;;;;;;19.90;99.90;;;;;;12377915;28;19930;-82
2023/09/16 20:17:25;;;;;;;;;;;19.90;99.90;;;;;;12370782;28;19989;-83
2023/09/16 20:23:27;;;;;;;;;;;19.80;99.90;;;;;;12365996;28;19973;-83
2023/09/16 20:29:28;;;;;;;;;;;19.60;99.90;;;;;;12387830;28;19938;-81
2023/09/16 20:35:30;;;;;;;;;;;19.50;99.90;;;;;;12364227;28;19934;-83
2023/09/16 20:41:32;;;;;;;;;;;19.30;99.90;;;;;;12363339;28;20409;-82
2023/09/16 20:47:34;;;;;;;;;;;19.20;99.90;;;;;;12379692;28;19936;-82
2023/09/16 20:53:36;;;;;;;;;;;19.10;99.90;;;;;;12365403;28;20044;-81
2023/09/16 20:59:38;;;;;;;;;;;19.00;99.90;;;;;;12360621;28;20310;-84
2023/09/16 21:05:40;;;;;;;;;;;19.20;99.90;;;;;;12375652;28;19934;-83
2023/09/16 21:11:42;;;;;;;;;;;19.20;99.90;;;;;;12379933;28;19952;-82
2023/09/16 21:17:43;;;;;;;;;;;19.30;99.90;;;;;;12380440;28;20302;-82
2023/09/16 21:23:45;;;;;;;;;;;19.30;99.90;;;;;;12379534;28;19929;-83
2023/09/16 21:29:47;;;;;;;;;;;19.40;99.90;;;;;;12379952;28;19926;-83
2023/09/16 21:35:49;;;;;;;;;;;19.40;99.90;;;;;;12359905;28;19929;-82
2023/09/16 21:41:51;;;;;;;;;;;19.20;99.90;;;;;;12363112;28;20331;-82
2023/09/16 21:47:53;;;;;;;;;;;19.30;99.90;;;;;;12356460;28;20337;-82
2023/09/16 21:53:55;;;;;;;;;;;19.30;99.90;;;;;;12370184;28;19937;-82
2023/09/16 21:59:57;;;;;;;;;;;19.30;99.90;;;;;;12358228;28;20450;-82
2023/09/16 22:05:58;;;;;;;;;;;19.10;99.90;;;;;;12376254;28;19930;-82
2023/09/16 22:12:00;;;;;;;;;;;19.00;99.90;;;;;;12356158;28;19976;-83
2023/09/16 22:18:03;;;;;;;;;;;19.00;99.90;;;;;;12367675;28;20352;-81
2023/09/16 22:24:05;;;;;;;;;;;19.00;99.90;;;;;;12365870;28;19929;-81
2023/09/16 22:30:07;;;;;;;;;;;18.90;99.90;;;;;;12359407;28;19955;-83
2023/09/16 22:36:09;;;;;;;;;;;19.00;99.90;;;;;;12376312;28;20041;-84
2023/09/16 22:42:11;;;;;;;;;;;19.00;99.90;;;;;;12366008;28;20370;-81
2023/09/16 22:48:13;;;;;;;;;;;18.90;99.90;;;;;;12367309;28;19936;-81
2023/09/16 22:54:15;;;;;;;;;;;18.80;99.90;;;;;;12355089;28;20394;-82
2023/09/16 23:00:17;;;;;;;;;;;18.80;99.90;;;;;;12377159;28;19929;-82
2023/09/16 23:06:18;;;;;;;;;;;18.80;99.90;;;;;;12349579;28;19972;-82
2023/09/16 23:12:20;;;;;;;;;;;18.90;99.90;;;;;;12346607;28;20170;-82
2023/09/16 23:18:22;;;;;;;;;;;18.90;99.90;;;;;;12378517;28;19929;-82
2023/09/16 23:24:24;;;;;;;;;;;18.80;99.90;;;;;;12366829;28;19989;-82
2023/09/16 23:30:26;;;;;;;;;;;18.80;99.90;;;;;;12370337;28;20398;-82
2023/09/16 23:36:27;;;;;;;;;;;18.70;99.90;;;;;;12358371;28;20000;-84
2023/09/16 23:42:29;;;;;;;;;;;18.60;99.90;;;;;;12365678;28;19936;-82
2023/09/16 23:48:31;;;;;;;;;;;18.60;99.90;;;;;;12359515;28;20782;-82
2023/09/16 23:54:33;;;;;;;;;;;18.30;99.90;;;;;;12355224;28;19930;-82
